Map

Track Data

SID SEASON NUMBER BASIN SUBBASIN NAME ISO_TIME NATURE LAT LON WMO_WIND WMO_PRES WMO_AGENCY TRACK_TYPE DIST2LAND LANDFALL IFLAG USA_AGENCY USA_ATCF_ID USA_LAT USA_LON USA_RECORD USA_STATUS USA_WIND USA_PRES USA_SSHS USA_R34_NE USA_R34_SE USA_R34_SW USA_R34_NW USA_R50_NE USA_R50_SE USA_R50_SW USA_R50_NW USA_R64_NE USA_R64_SE USA_R64_SW USA_R64_NW USA_POCI USA_ROCI USA_RMW USA_EYE TOKYO_LAT TOKYO_LON TOKYO_GRADE TOKYO_WIND TOKYO_PRES TOKYO_R50_DIR TOKYO_R50_LONG TOKYO_R50_SHORT TOKYO_R30_DIR TOKYO_R30_LONG TOKYO_R30_SHORT TOKYO_LAND CMA_LAT CMA_LON CMA_CAT CMA_WIND CMA_PRES HKO_LAT HKO_LON HKO_CAT HKO_WIND HKO_PRES NEWDELHI_LAT NEWDELHI_LON NEWDELHI_GRADE NEWDELHI_WIND NEWDELHI_PRES NEWDELHI_CI NEWDELHI_DP NEWDELHI_POCI REUNION_LAT REUNION_LON REUNION_TYPE REUNION_WIND REUNION_PRES REUNION_TNUM REUNION_CI REUNION_RMW REUNION_R34_NE REUNION_R34_SE REUNION_R34_SW REUNION_R34_NW REUNION_R50_NE REUNION_R50_SE REUNION_R50_SW REUNION_R50_NW REUNION_R64_NE REUNION_R64_SE REUNION_R64_SW REUNION_R64_NW BOM_LAT BOM_LON BOM_TYPE BOM_WIND BOM_PRES BOM_TNUM BOM_CI BOM_RMW BOM_R34_NE BOM_R34_SE BOM_R34_SW BOM_R34_NW BOM_R50_NE BOM_R50_SE BOM_R50_SW BOM_R50_NW BOM_R64_NE BOM_R64_SE BOM_R64_SW BOM_R64_NW BOM_ROCI BOM_POCI BOM_EYE BOM_POS_METHOD BOM_PRES_METHOD NADI_LAT NADI_LON NADI_CAT NADI_WIND NADI_PRES WELLINGTON_LAT WELLINGTON_LON WELLINGTON_WIND WELLINGTON_PRES DS824_LAT DS824_LON DS824_STAGE DS824_WIND DS824_PRES TD9636_LAT TD9636_LON TD9636_STAGE TD9636_WIND TD9636_PRES TD9635_LAT TD9635_LON TD9635_WIND TD9635_PRES TD9635_ROCI NEUMANN_LAT NEUMANN_LON NEUMANN_CLASS NEUMANN_WIND NEUMANN_PRES MLC_LAT MLC_LON MLC_CLASS MLC_WIND MLC_PRES USA_GUST BOM_GUST BOM_GUST_PER REUNION_GUST REUNION_GUST_PER USA_SEAHGT USA_SEARAD_NE USA_SEARAD_SE USA_SEARAD_SW USA_SEARAD_NW STORM_SPEED STORM_DIR
1915131N18111 1915 14 WP MM NOT_NAMED 1915-05-11 09:00:00 NR 17.9000 111.400 main 138 138 __________O___ -1 17.9000 111.400 4 10 63
1915131N18111 1915 14 WP MM NOT_NAMED 1915-05-11 12:00:00 NR 18.1353 111.885 main 167 162 __________P___ -1 18.1353 111.885 4 10 64
1915131N18111 1915 14 WP MM NOT_NAMED 1915-05-11 15:00:00 NR 18.3560 112.366 main 199 199 __________P___ -1 18.3560 112.366 4 10 65
1915131N18111 1915 14 WP MM NOT_NAMED 1915-05-11 18:00:00 NR 18.5487 112.839 main 225 225 __________P___ -1 18.5487 112.839 4 10 69
1915131N18111 1915 14 WP MM NOT_NAMED 1915-05-11 21:00:00 NR 18.7000 113.300 main 261 261 __________O___ -1 18.7000 113.300 4 9 73
1915131N18111 1915 14 WP MM NOT_NAMED 1915-05-12 00:00:00 NR 18.8026 113.743 main 297 297 __________P___ -1 18.8026 113.743 4 8 78
1915131N18111 1915 14 WP MM NOT_NAMED 1915-05-12 03:00:00 NR 18.8723 114.161 main 344 344 __________P___ -1 18.8723 114.161 4 8 80
1915131N18111 1915 14 WP MM NOT_NAMED 1915-05-12 06:00:00 NR 18.9308 114.549 main 370 369 __________P___ -1 18.9308 114.549 4 7 80
1915131N18111 1915 14 WP MM NOT_NAMED 1915-05-12 09:00:00 NR 19.0000 114.900 main 374 365 __________O___ -1 19.0000 114.900 4 6 73
1915131N18111 1915 14 WP MM NOT_NAMED 1915-05-12 12:00:00 NR 19.1098 115.183 main 369 361 __________P___ -1 19.1098 115.183 4 6 65
1915131N18111 1915 14 WP MM NOT_NAMED 1915-05-12 15:00:00 NR 19.2339 115.435 main 365 355 __________P___ -1 19.2339 115.435 4 5 62
1915131N18111 1915 14 WP MM NOT_NAMED 1915-05-12 18:00:00 NR 19.3660 115.695 main 355 351 __________P___ -1 19.3660 115.695 4 6 63
1915131N18111 1915 14 WP MM NOT_NAMED 1915-05-12 21:00:00 NR 19.5000 116.000 main 354 349 __________O___ -1 19.5000 116.000 4 7 69
1915131N18111 1915 14 WP MM NOT_NAMED 1915-05-13 00:00:00 NR 19.6256 116.428 main 352 343 __________P___ -1 19.6256 116.428 4 9 74
1915131N18111 1915 14 WP MM NOT_NAMED 1915-05-13 03:00:00 NR 19.7509 116.900 main 343 343 __________P___ -1 19.7509 116.900 4 9 74
1915131N18111 1915 14 WP MM NOT_NAMED 1915-05-13 06:00:00 NR 19.8756 117.372 main 348 343 __________P___ -1 19.8756 117.372 4 9 74
1915131N18111 1915 14 WP MM NOT_NAMED 1915-05-13 09:00:00 NR 20.0000 117.800 main 344 324 __________O___ -1 20.0000 117.800 4 7 70
1915131N18111 1915 14 WP MM NOT_NAMED 1915-05-13 12:00:00 NR 20.1198 118.085 main 324 313 __________P___ -1 20.1198 118.085 4 6 64
1915131N18111 1915 14 WP MM NOT_NAMED 1915-05-13 15:00:00 NR 20.2408 118.328 main 313 274 __________P___ -1 20.2408 118.328 4 5 62
1915131N18111 1915 14 WP MM NOT_NAMED 1915-05-13 18:00:00 NR 20.3665 118.582 main 274 243 __________P___ -1 20.3665 118.582 4 6 64
1915131N18111 1915 14 WP MM NOT_NAMED 1915-05-13 21:00:00 NR 20.5000 118.900 main 243 205 __________O___ -1 20.5000 118.900 4 8 68
1915131N18111 1915 14 WP MM NOT_NAMED 1915-05-14 00:00:00 NR 20.6470 119.341 main 205 154 __________P___ -1 20.6470 119.341 4 9 71
1915131N18111 1915 14 WP MM NOT_NAMED 1915-05-14 03:00:00 NR 20.8001 119.852 main 148 116 __________P___ -1 20.8001 119.852 4 10 73
1915131N18111 1915 14 WP MM NOT_NAMED 1915-05-14 06:00:00 NR 20.9530 120.413 main 105 89 __________P___ -1 20.9530 120.413 4 11 74
1915131N18111 1915 14 WP MM NOT_NAMED 1915-05-14 09:00:00 NR 21.1000 121.000 main 90 84 __________O___ -1 21.1000 121.000 4 11 76
1915131N18111 1915 14 WP MM NOT_NAMED 1915-05-14 12:00:00 NR 21.2058 121.519 main 99 99 __________P___ -1 21.2058 121.519 4 10 78
1915131N18111 1915 14 WP MM NOT_NAMED 1915-05-14 15:00:00 NR 21.3092 122.068 main 141 141 __________P___ -1 21.3092 122.068 4 11 78
1915131N18111 1915 14 WP MM NOT_NAMED 1915-05-14 18:00:00 NR 21.4332 122.683 main 194 194 __________P___ -1 21.4332 122.683 4 13 77
1915131N18111 1915 14 WP MM NOT_NAMED 1915-05-14 21:00:00 NR 21.6000 123.400 main 260 260 __________O___ -1 21.6000 123.400 4 15 75
1915131N18111 1915 14 WP MM NOT_NAMED 1915-05-15 00:00:00 NR 21.8212 124.279 main 331 331 __________P___ -1 21.8212 124.279 4 18 74
1915131N18111 1915 14 WP MM NOT_NAMED 1915-05-15 03:00:00 NR 22.0845 125.260 main 415 415 __________P___ -1 22.0845 125.260 4 19 73
1915131N18111 1915 14 WP MM NOT_NAMED 1915-05-15 06:00:00 NR 22.3803 126.286 main 506 506 __________P___ -1 22.3803 126.286 4 20 72
1915131N18111 1915 14 WP MM NOT_NAMED 1915-05-15 09:00:00 NR 22.7000 127.300 main 585 585 __________O___ -1 22.7000 127.300 4 16 72
1915131N18111 1915 14 WP MM NOT_NAMED 1915-05-15 12:00:00 NR 22.8777 127.982 main 645 645 __________P___ -1 22.8777 127.982 4 13 72
1915131N18111 1915 14 WP MM NOT_NAMED 1915-05-15 15:00:00 NR 23.1022 128.677 main 708 708 __________P___ -1 23.1022 128.677 4 16 68
1915131N18111 1915 14 WP MM NOT_NAMED 1915-05-15 18:00:00 NR 23.4766 129.581 main 787 770 __________P___ -1 23.4766 129.581 4 23 64
1915131N18111 1915 14 WP MM NOT_NAMED 1915-05-15 21:00:00 NR 24.1000 130.900 main 770 700 __________O___ -1 24.1000 130.900 4 34 63
1915131N18111 1915 14 WP MM NOT_NAMED 1915-05-16 00:00:00 NR 25.0604 132.917 main 693 683 __________P___ -1 25.0604 132.917 4 46 62
1915131N18111 1915 14 WP MM NOT_NAMED 1915-05-16 03:00:00 NR 26.2375 135.396 main 698 694 __________P___ -1 26.2375 135.396 4 53 62
1915131N18111 1915 14 WP MM NOT_NAMED 1915-05-16 06:00:00 NR 27.5175 138.154 main 697 681 __________P___ -1 27.5175 138.154 4 56 63
1915131N18111 1915 14 WP MM NOT_NAMED 1915-05-16 09:00:00 NR 28.8000 141.000 main 679 646 __________O___ -1 28.8000 141.000 4 55 63
1915131N18111 1915 14 WP MM NOT_NAMED 1915-05-16 12:00:00 NR 30.0179 143.775 main 657 653 __________P___ -1 30.0179 143.775 4 53 63
1915131N18111 1915 14 WP MM NOT_NAMED 1915-05-16 15:00:00 NR 31.1701 146.487 main 720 720 __________P___ -1 31.1701 146.487 4 51 64
1915131N18111 1915 14 WP MM NOT_NAMED 1915-05-16 18:00:00 NR 32.2640 149.182 main 852 852 __________P___ -1 32.2640 149.182 4 50 65
1915131N18111 1915 14 WP MM NOT_NAMED 1915-05-16 21:00:00 NR 33.3000 151.900 main 1040 __________O___ -1 33.3000 151.900 4 50 65

Digital Typhoon Data and Search

About IBTrACS Database

This database is a web-friendly format of International Best Track Archive for Climate Stewardship (IBTrACS), a global best track data archive curated by NOAA dating back to 1842.

Updated: 2021-12-08